createdAt,value
2019-01-25T00:00:15.656Z,112.20
2019-01-25T00:05:16.949Z,150.32
2019-01-25T00:10:20.179Z,142.18
2019-01-25T00:15:21.553Z,125.53
2019-01-25T00:20:22.946Z,104.83
2019-01-25T00:25:24.326Z,104.38
2019-01-25T00:30:25.669Z,109.65
2019-01-25T00:35:27.384Z,101.33
2019-01-25T00:40:28.750Z,123.13
2019-01-25T00:45:30.060Z,112.57
2019-01-25T00:50:31.499Z,115.42
2019-01-25T00:55:32.985Z,106.97
2019-01-25T01:00:34.491Z,116.60
2019-01-25T01:05:35.917Z,104.27
2019-01-25T01:10:41.650Z,113.17
2019-01-25T01:15:43.011Z,102.97
2019-01-25T01:20:44.377Z,108.03
2019-01-25T01:25:45.715Z,110.65
2019-01-25T01:30:47.232Z,105.22
2019-01-25T01:35:48.566Z,105.25
2019-01-25T01:40:49.965Z,105.25
2019-01-25T01:45:51.449Z,107.70
2019-01-25T01:50:52.897Z,111.68
2019-01-25T01:55:54.201Z,107.15
2019-01-25T02:00:55.680Z,104.00
2019-01-25T02:05:56.989Z,105.35
2019-01-25T02:10:58.307Z,103.40
2019-01-25T02:15:59.670Z,111.28
2019-01-25T02:21:01.079Z,104.05
2019-01-25T02:26:02.379Z,99.77
2019-01-25T02:31:03.745Z,106.78
2019-01-25T02:36:05.591Z,108.63
2019-01-25T02:41:06.971Z,109.90
2019-01-25T02:46:08.318Z,102.35
2019-01-25T02:51:09.628Z,108.42
2019-01-25T02:56:10.972Z,105.32
2019-01-25T03:01:12.305Z,109.45
2019-01-25T03:06:13.769Z,109.45
2019-01-25T03:11:15.107Z,105.17
2019-01-25T03:16:16.449Z,110.72
2019-01-25T03:21:17.754Z,108.85
2019-01-25T03:26:19.078Z,111.68
2019-01-25T03:31:20.385Z,106.85
2019-01-25T03:36:21.714Z,114.47
2019-01-25T03:41:23.048Z,108.55
2019-01-25T03:46:24.384Z,103.32
2019-01-25T03:51:25.789Z,111.57
2019-01-25T03:56:27.106Z,109.78
2019-01-25T04:01:28.608Z,115.90
2019-01-25T04:06:29.972Z,102.15
2019-01-25T04:11:31.336Z,102.87
2019-01-25T04:16:32.769Z,107.72
2019-01-25T04:21:34.105Z,106.97
2019-01-25T04:26:35.599Z,112.42
2019-01-25T04:31:37.035Z,106.70
2019-01-25T04:41:57.959Z,106.50
2019-01-25T04:46:59.342Z,107.32
2019-01-25T04:52:00.688Z,110.88
2019-01-25T04:57:02.053Z,112.17
2019-01-25T05:02:04.019Z,106.03
2019-01-25T05:07:05.745Z,104.38
2019-01-25T05:12:07.115Z,112.70
2019-01-25T05:17:08.515Z,103.40
2019-01-25T05:22:09.802Z,100.45
2019-01-25T05:27:12.792Z,112.62
2019-01-25T05:32:14.205Z,106.67
2019-01-25T05:37:15.609Z,111.25
2019-01-25T05:42:35.395Z,106.58
2019-01-25T05:47:36.679Z,108.37
2019-01-25T05:52:37.959Z,114.62
2019-01-25T05:57:39.245Z,102.25
2019-01-25T06:02:50.523Z,115.89
2019-01-25T06:07:51.816Z,105.32
2019-01-25T06:12:53.175Z,116.22
2019-01-25T06:18:00.244Z,117.65
2019-01-25T06:23:01.534Z,123.40
2019-01-25T06:28:04.717Z,109.67
2019-01-25T06:33:06.043Z,116.80
2019-01-25T06:38:07.379Z,118.57
2019-01-25T06:43:08.656Z,121.05
2019-01-25T06:48:10.059Z,120.62
2019-01-25T06:53:11.520Z,115.35
2019-01-25T06:58:17.579Z,129.23
2019-01-25T07:03:18.867Z,115.72
2019-01-25T07:08:20.175Z,129.18
2019-01-25T07:13:21.459Z,113.57
2019-01-25T07:18:22.779Z,121.65
2019-01-25T07:23:24.108Z,118.80
2019-01-25T07:28:25.482Z,117.85
2019-01-25T07:33:27.071Z,126.45
2019-01-25T07:38:28.386Z,132.80
2019-01-25T07:43:30.071Z,134.25
2019-01-25T07:48:31.410Z,125.90
2019-01-25T07:53:32.808Z,124.27
2019-01-25T07:58:34.405Z,158.37
2019-01-25T08:03:35.694Z,170.00
2019-01-25T08:08:36.989Z,158.30
2019-01-25T08:13:38.351Z,135.32
2019-01-25T08:18:39.684Z,133.93
2019-01-25T08:23:41.145Z,128.35
2019-01-25T08:28:42.521Z,117.25
2019-01-25T08:33:43.837Z,106.12
2019-01-25T08:38:45.416Z,86.70
2019-01-25T08:43:46.813Z,92.82
2019-01-25T08:48:48.243Z,94.77
2019-01-25T08:53:49.876Z,91.92
2019-01-25T08:58:51.342Z,104.23
2019-01-25T09:03:52.858Z,96.60
2019-01-25T09:08:54.156Z,99.32
2019-01-25T09:13:55.731Z,96.90
2019-01-25T09:18:57.183Z,100.07
2019-01-25T09:23:58.554Z,109.78
2019-01-25T09:28:59.847Z,110.08
2019-01-25T09:34:01.292Z,113.47
2019-01-25T09:39:06.328Z,126.75
2019-01-25T09:44:07.678Z,139.05
2019-01-25T09:49:09.114Z,122.78
2019-01-25T09:54:10.466Z,133.40
2019-01-25T09:59:11.762Z,119.45
2019-01-25T10:04:13.125Z,121.20
2019-01-25T10:09:14.473Z,127.53
2019-01-25T10:14:15.836Z,126.27
2019-01-25T10:19:17.249Z,131.15
2019-01-25T10:24:18.702Z,133.12
2019-01-25T10:29:20.039Z,121.00
2019-01-25T10:34:23.415Z,120.53
2019-01-25T10:39:24.839Z,120.05
2019-01-25T10:44:26.185Z,122.07
2019-01-25T10:49:28.733Z,127.35
2019-01-25T10:54:30.090Z,123.13
2019-01-25T10:59:31.543Z,118.37
2019-01-25T11:04:34.881Z,130.35
2019-01-25T11:09:38.267Z,113.22
2019-01-25T11:14:39.689Z,117.35
2019-01-25T11:19:40.982Z,108.78
2019-01-25T11:24:42.319Z,105.40
2019-01-25T11:29:43.710Z,114.57
2019-01-25T11:34:45.081Z,108.32
2019-01-25T11:39:49.165Z,108.03
2019-01-25T11:44:49.858Z,99.75
2019-01-25T11:49:51.252Z,96.72
2019-01-25T11:54:52.668Z,90.15
2019-01-25T11:59:53.954Z,92.90
2019-01-25T12:04:55.463Z,94.62
2019-01-25T12:09:56.814Z,96.45
2019-01-25T12:14:58.457Z,91.30
2019-01-25T12:19:59.768Z,86.70
2019-01-25T12:25:01.124Z,89.15
2019-01-25T12:30:13.738Z,97.60
2019-01-25T12:35:15.014Z,90.67
2019-01-25T12:40:18.972Z,100.90
2019-01-25T12:45:27.258Z,94.92
2019-01-25T12:50:49.429Z,107.90
2019-01-25T12:55:50.737Z,106.92
2019-01-25T13:00:52.141Z,104.25
2019-01-25T13:05:53.617Z,106.65
2019-01-25T13:10:54.935Z,113.00
2019-01-25T13:15:56.451Z,110.22
2019-01-25T13:20:57.794Z,116.55
2019-01-25T13:25:59.183Z,123.10
2019-01-25T13:31:00.609Z,116.03
2019-01-25T13:36:02.528Z,126.53
2019-01-25T13:41:04.001Z,126.30
2019-01-25T13:46:05.330Z,126.55
2019-01-25T13:51:06.659Z,127.40
2019-01-25T13:56:08.092Z,128.27
2019-01-25T14:01:09.434Z,116.75
2019-01-25T14:06:10.794Z,122.53
2019-01-25T14:11:12.167Z,113.00
2019-01-25T14:16:13.490Z,119.82
2019-01-25T14:21:14.886Z,125.35
2019-01-25T14:26:16.245Z,120.67
2019-01-25T14:31:17.579Z,130.93
2019-01-25T14:36:18.917Z,129.15
2019-01-25T14:41:20.317Z,131.95
2019-01-25T14:46:21.684Z,135.07
2019-01-25T14:51:23.024Z,123.62
2019-01-25T14:56:25.582Z,132.00
2019-01-25T15:01:27.007Z,133.35
2019-01-25T15:06:28.431Z,140.40
2019-01-25T15:11:29.764Z,134.30
2019-01-25T15:16:31.374Z,132.22
2019-01-25T15:21:32.688Z,134.43
2019-01-25T15:26:34.989Z,128.18
2019-01-25T15:31:38.017Z,140.75
2019-01-25T15:36:40.355Z,136.85
2019-01-25T15:41:42.219Z,137.35
2019-01-25T15:46:43.776Z,130.93
2019-01-25T15:51:45.839Z,128.47
2019-01-25T15:56:47.169Z,142.85
2019-01-25T16:01:49.364Z,127.70
2019-01-25T16:06:51.899Z,131.52
2019-01-25T16:17:13.727Z,101.62
2019-01-25T16:22:15.668Z,110.42
2019-01-25T16:27:17.341Z,97.17
2019-01-25T16:32:19.134Z,99.45
2019-01-25T16:37:21.123Z,100.60
2019-01-25T16:42:24.431Z,108.85
2019-01-25T16:47:25.780Z,101.97
2019-01-25T16:52:27.460Z,99.72
2019-01-25T16:57:28.833Z,94.37
2019-01-25T17:02:30.406Z,97.57
2019-01-25T17:07:31.871Z,102.85
2019-01-25T17:12:33.264Z,111.12
2019-01-25T17:17:34.916Z,105.52
2019-01-25T17:22:36.262Z,102.95
2019-01-25T17:27:37.775Z,109.00
2019-01-25T17:32:39.167Z,105.65
2019-01-25T17:37:40.569Z,96.12
2019-01-25T17:42:41.972Z,94.35
2019-01-25T17:47:43.496Z,98.72
2019-01-25T17:52:45.983Z,88.03
2019-01-25T17:57:47.434Z,94.30
2019-01-25T18:02:48.929Z,88.55
2019-01-25T18:07:52.889Z,95.77
2019-01-25T18:12:54.222Z,82.65
2019-01-25T18:17:55.803Z,90.38
2019-01-25T18:22:57.113Z,91.82
2019-01-25T18:28:03.777Z,88.72
2019-01-25T18:33:05.524Z,92.88
2019-01-25T18:38:06.789Z,92.17
2019-01-25T18:43:08.120Z,99.22
2019-01-25T18:48:10.400Z,94.52
2019-01-25T18:53:11.723Z,91.87
2019-01-25T18:58:13.060Z,95.42
2019-01-25T19:03:14.486Z,108.32
2019-01-25T19:08:15.860Z,94.65
2019-01-25T19:13:17.228Z,95.72
2019-01-25T19:18:18.929Z,97.92
2019-01-25T19:23:20.260Z,98.17
2019-01-25T19:28:21.574Z,96.15
2019-01-25T19:33:22.953Z,100.75
2019-01-25T19:38:24.649Z,89.45
2019-01-25T19:43:26.257Z,103.40
2019-01-25T19:48:27.724Z,115.28
2019-01-25T19:53:29.223Z,111.77
2019-01-25T19:58:30.659Z,125.07
2019-01-25T20:03:31.963Z,117.00
2019-01-25T20:08:34.125Z,133.03
2019-01-25T20:13:35.674Z,165.62
2019-01-25T20:18:58.411Z,165.88
2019-01-25T20:24:09.750Z,159.57
2019-01-25T20:29:11.531Z,186.28
2019-01-25T20:34:13.087Z,198.23
2019-01-25T20:39:15.212Z,212.32
2019-01-25T20:44:16.574Z,198.38
2019-01-25T20:49:18.019Z,204.38
2019-01-25T20:54:19.676Z,219.95
2019-01-25T20:59:23.003Z,218.40
2019-01-25T21:04:24.366Z,215.85
2019-01-25T21:09:25.718Z,206.87
2019-01-25T21:14:27.260Z,275.85
2019-01-25T21:19:28.605Z,283.32
2019-01-25T21:24:29.905Z,247.42
2019-01-25T21:29:31.837Z,231.07
2019-01-25T21:34:33.454Z,277.90
2019-01-25T21:39:34.799Z,289.80
2019-01-25T21:44:36.362Z,242.03
2019-01-25T21:49:37.732Z,256.68
2019-01-25T21:54:39.073Z,253.90
2019-01-25T21:59:40.440Z,234.65
2019-01-25T22:04:41.764Z,274.27
2019-01-25T22:09:43.196Z,251.77
2019-01-25T22:14:44.565Z,221.62
2019-01-25T22:19:47.072Z,236.18
2019-01-25T22:24:48.349Z,245.55
2019-01-25T22:29:49.703Z,241.68
2019-01-25T22:34:51.213Z,228.73
2019-01-25T22:39:53.614Z,212.78
2019-01-25T22:44:54.978Z,199.00
2019-01-25T22:49:56.810Z,215.43
2019-01-25T22:54:58.112Z,217.85
2019-01-25T22:59:59.451Z,186.65
2019-01-25T23:05:12.180Z,197.45
2019-01-25T23:10:13.518Z,231.23
2019-01-25T23:15:14.963Z,216.12
2019-01-25T23:20:16.336Z,189.25
2019-01-25T23:25:17.655Z,199.00
2019-01-25T23:30:19.402Z,187.37
2019-01-25T23:35:20.938Z,173.90
2019-01-25T23:40:22.386Z,193.62
2019-01-25T23:45:23.711Z,174.97
2019-01-25T23:50:25.146Z,166.70
2019-01-25T23:55:27.259Z,203.20
